sensor_id;sensor_type;location;lat;lon;timestamp;P1;durP1;ratioP1;P2;durP2;ratioP2
51558;SDS011;61650;48.882;2.092;2023-02-01T00:02:23;8.33;;;5.67;;
51558;SDS011;61650;48.882;2.092;2023-02-01T00:04:49;10.80;;;5.23;;
51558;SDS011;61650;48.882;2.092;2023-02-01T00:07:14;7.13;;;4.90;;
51558;SDS011;61650;48.882;2.092;2023-02-01T00:09:40;12.83;;;5.77;;
51558;SDS011;61650;48.882;2.092;2023-02-01T00:12:05;11.10;;;5.63;;
51558;SDS011;61650;48.882;2.092;2023-02-01T00:14:31;10.27;;;5.37;;
51558;SDS011;61650;48.882;2.092;2023-02-01T00:17:03;9.05;;;5.68;;
51558;SDS011;61650;48.882;2.092;2023-02-01T00:19:30;6.40;;;5.53;;
51558;SDS011;61650;48.882;2.092;2023-02-01T00:21:55;8.60;;;5.10;;
51558;SDS011;61650;48.882;2.092;2023-02-01T00:24:21;7.10;;;5.30;;
51558;SDS011;61650;48.882;2.092;2023-02-01T00:26:46;10.83;;;5.13;;
51558;SDS011;61650;48.882;2.092;2023-02-01T00:29:14;6.95;;;5.25;;
51558;SDS011;61650;48.882;2.092;2023-02-01T00:31:41;9.15;;;5.45;;
51558;SDS011;61650;48.882;2.092;2023-02-01T00:34:09;8.40;;;5.35;;
51558;SDS011;61650;48.882;2.092;2023-02-01T00:36:37;7.57;;;5.65;;
51558;SDS011;61650;48.882;2.092;2023-02-01T00:39:03;9.37;;;5.90;;
51558;SDS011;61650;48.882;2.092;2023-02-01T00:41:28;6.83;;;5.20;;
51558;SDS011;61650;48.882;2.092;2023-02-01T00:43:54;8.57;;;4.97;;
51558;SDS011;61650;48.882;2.092;2023-02-01T00:46:20;9.50;;;5.53;;
51558;SDS011;61650;48.882;2.092;2023-02-01T00:48:46;8.23;;;5.82;;
51558;SDS011;61650;48.882;2.092;2023-02-01T00:51:13;7.97;;;5.40;;
51558;SDS011;61650;48.882;2.092;2023-02-01T00:53:43;7.88;;;5.05;;
51558;SDS011;61650;48.882;2.092;2023-02-01T00:56:08;7.43;;;5.13;;
51558;SDS011;61650;48.882;2.092;2023-02-01T00:58:35;6.93;;;5.22;;
51558;SDS011;61650;48.882;2.092;2023-02-01T01:03:29;8.02;;;5.28;;
51558;SDS011;61650;48.882;2.092;2023-02-01T01:05:58;7.13;;;5.35;;
51558;SDS011;61650;48.882;2.092;2023-02-01T01:08:25;7.68;;;5.05;;
51558;SDS011;61650;48.882;2.092;2023-02-01T01:10:50;7.83;;;5.60;;
51558;SDS011;61650;48.882;2.092;2023-02-01T01:13:16;9.43;;;5.73;;
51558;SDS011;61650;48.882;2.092;2023-02-01T01:15:42;9.33;;;5.10;;
51558;SDS011;61650;48.882;2.092;2023-02-01T01:18:10;9.30;;;5.10;;
51558;SDS011;61650;48.882;2.092;2023-02-01T01:20:36;7.10;;;4.97;;
51558;SDS011;61650;48.882;2.092;2023-02-01T01:23:03;12.15;;;5.30;;
51558;SDS011;61650;48.882;2.092;2023-02-01T01:25:30;8.65;;;5.35;;
51558;SDS011;61650;48.882;2.092;2023-02-01T01:27:56;7.97;;;5.07;;
51558;SDS011;61650;48.882;2.092;2023-02-01T01:30:22;7.60;;;4.70;;
51558;SDS011;61650;48.882;2.092;2023-02-01T01:32:48;6.03;;;3.53;;
51558;SDS011;61650;48.882;2.092;2023-02-01T01:35:13;7.40;;;3.60;;
51558;SDS011;61650;48.882;2.092;2023-02-01T01:37:39;8.60;;;4.00;;
51558;SDS011;61650;48.882;2.092;2023-02-01T01:40:05;10.90;;;3.57;;
51558;SDS011;61650;48.882;2.092;2023-02-01T01:42:41;4.57;;;2.67;;
51558;SDS011;61650;48.882;2.092;2023-02-01T01:47:54;5.00;;;2.78;;
51558;SDS011;61650;48.882;2.092;2023-02-01T01:50:26;8.27;;;2.88;;
51558;SDS011;61650;48.882;2.092;2023-02-01T01:52:55;6.65;;;3.45;;
51558;SDS011;61650;48.882;2.092;2023-02-01T01:55:24;5.60;;;2.67;;
51558;SDS011;61650;48.882;2.092;2023-02-01T01:57:57;6.28;;;2.72;;
51558;SDS011;61650;48.882;2.092;2023-02-01T02:00:26;9.45;;;3.30;;
51558;SDS011;61650;48.882;2.092;2023-02-01T02:02:55;6.00;;;2.60;;
51558;SDS011;61650;48.882;2.092;2023-02-01T02:05:23;5.40;;;3.28;;
51558;SDS011;61650;48.882;2.092;2023-02-01T02:07:50;5.18;;;3.00;;
51558;SDS011;61650;48.882;2.092;2023-02-01T02:10:18;6.60;;;2.88;;
51558;SDS011;61650;48.882;2.092;2023-02-01T02:12:46;8.83;;;3.00;;
51558;SDS011;61650;48.882;2.092;2023-02-01T02:15:13;6.57;;;2.85;;
51558;SDS011;61650;48.882;2.092;2023-02-01T02:17:54;6.43;;;2.85;;
51558;SDS011;61650;48.882;2.092;2023-02-01T02:20:44;6.80;;;2.70;;
51558;SDS011;61650;48.882;2.092;2023-02-01T02:29:48;9.23;;;2.70;;
51558;SDS011;61650;48.882;2.092;2023-02-01T02:36:24;6.45;;;2.30;;
51558;SDS011;61650;48.882;2.092;2023-02-01T02:44:54;9.77;;;2.85;;
51558;SDS011;61650;48.882;2.092;2023-02-01T02:47:33;4.65;;;2.05;;
51558;SDS011;61650;48.882;2.092;2023-02-01T02:53:11;7.20;;;2.45;;
51558;SDS011;61650;48.882;2.092;2023-02-01T02:55:59;8.40;;;2.22;;
51558;SDS011;61650;48.882;2.092;2023-02-01T02:58:46;8.35;;;2.53;;
51558;SDS011;61650;48.882;2.092;2023-02-01T03:01:32;10.98;;;3.10;;
51558;SDS011;61650;48.882;2.092;2023-02-01T03:04:16;10.88;;;2.60;;
51558;SDS011;61650;48.882;2.092;2023-02-01T03:06:45;7.25;;;3.25;;
51558;SDS011;61650;48.882;2.092;2023-02-01T03:09:17;6.27;;;2.37;;
51558;SDS011;61650;48.882;2.092;2023-02-01T03:11:48;6.93;;;2.30;;
51558;SDS011;61650;48.882;2.092;2023-02-01T03:14:41;7.03;;;2.70;;
51558;SDS011;61650;48.882;2.092;2023-02-01T03:17:14;8.85;;;2.85;;
51558;SDS011;61650;48.882;2.092;2023-02-01T03:19:45;7.07;;;2.90;;
51558;SDS011;61650;48.882;2.092;2023-02-01T03:22:20;5.32;;;2.42;;
51558;SDS011;61650;48.882;2.092;2023-02-01T03:24:51;10.85;;;2.30;;
51558;SDS011;61650;48.882;2.092;2023-02-01T03:27:55;7.57;;;2.95;;
51558;SDS011;61650;48.882;2.092;2023-02-01T03:30:28;9.63;;;2.85;;
51558;SDS011;61650;48.882;2.092;2023-02-01T03:32:58;6.47;;;2.30;;
51558;SDS011;61650;48.882;2.092;2023-02-01T03:35:51;7.40;;;2.53;;
51558;SDS011;61650;48.882;2.092;2023-02-01T03:46:54;6.45;;;2.72;;
51558;SDS011;61650;48.882;2.092;2023-02-01T03:49:33;11.25;;;2.30;;
51558;SDS011;61650;48.882;2.092;2023-02-01T03:51:59;12.57;;;3.20;;
51558;SDS011;61650;48.882;2.092;2023-02-01T03:54:26;6.70;;;2.83;;
51558;SDS011;61650;48.882;2.092;2023-02-01T03:56:53;4.97;;;2.40;;
51558;SDS011;61650;48.882;2.092;2023-02-01T03:59:22;7.57;;;2.65;;
51558;SDS011;61650;48.882;2.092;2023-02-01T04:01:49;9.60;;;2.30;;
51558;SDS011;61650;48.882;2.092;2023-02-01T04:04:15;10.57;;;2.70;;
51558;SDS011;61650;48.882;2.092;2023-02-01T04:06:48;8.93;;;2.50;;
51558;SDS011;61650;48.882;2.092;2023-02-01T04:09:14;7.63;;;2.13;;
51558;SDS011;61650;48.882;2.092;2023-02-01T04:11:40;7.10;;;2.00;;
51558;SDS011;61650;48.882;2.092;2023-02-01T04:14:06;4.43;;;2.53;;
51558;SDS011;61650;48.882;2.092;2023-02-01T04:16:32;5.33;;;2.17;;
51558;SDS011;61650;48.882;2.092;2023-02-01T04:18:58;7.57;;;2.78;;
51558;SDS011;61650;48.882;2.092;2023-02-01T04:21:28;4.80;;;2.10;;
51558;SDS011;61650;48.882;2.092;2023-02-01T04:23:54;10.02;;;2.70;;
51558;SDS011;61650;48.882;2.092;2023-02-01T04:26:19;6.93;;;2.30;;
51558;SDS011;61650;48.882;2.092;2023-02-01T04:28:45;4.80;;;2.07;;
51558;SDS011;61650;48.882;2.092;2023-02-01T04:31:15;12.18;;;3.17;;
51558;SDS011;61650;48.882;2.092;2023-02-01T04:33:41;6.57;;;2.70;;
51558;SDS011;61650;48.882;2.092;2023-02-01T04:36:06;7.27;;;2.43;;
51558;SDS011;61650;48.882;2.092;2023-02-01T04:38:32;5.40;;;2.40;;
51558;SDS011;61650;48.882;2.092;2023-02-01T04:40:58;8.17;;;2.87;;
51558;SDS011;61650;48.882;2.092;2023-02-01T04:43:24;5.63;;;2.20;;
51558;SDS011;61650;48.882;2.092;2023-02-01T04:45:50;15.57;;;2.70;;
51558;SDS011;61650;48.882;2.092;2023-02-01T04:48:16;7.63;;;3.08;;
51558;SDS011;61650;48.882;2.092;2023-02-01T04:50:43;6.43;;;2.35;;
51558;SDS011;61650;48.882;2.092;2023-02-01T04:53:16;8.48;;;2.10;;
51558;SDS011;61650;48.882;2.092;2023-02-01T04:55:42;5.40;;;2.10;;
51558;SDS011;61650;48.882;2.092;2023-02-01T04:58:09;7.45;;;2.10;;
51558;SDS011;61650;48.882;2.092;2023-02-01T05:00:35;9.07;;;2.55;;
51558;SDS011;61650;48.882;2.092;2023-02-01T05:03:00;7.47;;;2.00;;
51558;SDS011;61650;48.882;2.092;2023-02-01T05:05:26;7.43;;;2.40;;
51558;SDS011;61650;48.882;2.092;2023-02-01T05:07:53;8.90;;;2.25;;
51558;SDS011;61650;48.882;2.092;2023-02-01T05:10:18;5.87;;;2.40;;
51558;SDS011;61650;48.882;2.092;2023-02-01T05:12:44;8.27;;;2.50;;
51558;SDS011;61650;48.882;2.092;2023-02-01T05:15:29;8.30;;;2.35;;
51558;SDS011;61650;48.882;2.092;2023-02-01T05:17:55;5.68;;;2.20;;
51558;SDS011;61650;48.882;2.092;2023-02-01T05:20:21;9.60;;;2.17;;
51558;SDS011;61650;48.882;2.092;2023-02-01T05:22:46;13.10;;;2.73;;
51558;SDS011;61650;48.882;2.092;2023-02-01T05:25:12;6.53;;;2.50;;
51558;SDS011;61650;48.882;2.092;2023-02-01T05:27:38;8.53;;;2.93;;
51558;SDS011;61650;48.882;2.092;2023-02-01T05:30:04;7.40;;;2.20;;
51558;SDS011;61650;48.882;2.092;2023-02-01T05:32:31;7.00;;;2.72;;
51558;SDS011;61650;48.882;2.092;2023-02-01T05:34:56;7.27;;;2.07;;
51558;SDS011;61650;48.882;2.092;2023-02-01T05:37:22;5.50;;;2.07;;
51558;SDS011;61650;48.882;2.092;2023-02-01T05:39:48;9.30;;;2.50;;
51558;SDS011;61650;48.882;2.092;2023-02-01T05:42:13;10.60;;;2.60;;
51558;SDS011;61650;48.882;2.092;2023-02-01T05:44:39;11.18;;;2.22;;
51558;SDS011;61650;48.882;2.092;2023-02-01T05:47:05;7.23;;;2.27;;
51558;SDS011;61650;48.882;2.092;2023-02-01T05:49:31;8.45;;;3.00;;
51558;SDS011;61650;48.882;2.092;2023-02-01T05:51:57;6.60;;;2.40;;
51558;SDS011;61650;48.882;2.092;2023-02-01T05:54:22;7.00;;;2.90;;
51558;SDS011;61650;48.882;2.092;2023-02-01T05:56:48;5.57;;;2.40;;
51558;SDS011;61650;48.882;2.092;2023-02-01T05:59:14;11.73;;;2.93;;
51558;SDS011;61650;48.882;2.092;2023-02-01T06:01:39;6.07;;;2.33;;
51558;SDS011;61650;48.882;2.092;2023-02-01T06:04:05;8.70;;;2.80;;
51558;SDS011;61650;48.882;2.092;2023-02-01T06:06:30;12.80;;;2.40;;
51558;SDS011;61650;48.882;2.092;2023-02-01T06:08:56;4.73;;;2.43;;
51558;SDS011;61650;48.882;2.092;2023-02-01T06:11:22;11.77;;;3.40;;
51558;SDS011;61650;48.882;2.092;2023-02-01T06:13:48;11.47;;;2.40;;
51558;SDS011;61650;48.882;2.092;2023-02-01T06:16:13;13.40;;;2.57;;
51558;SDS011;61650;48.882;2.092;2023-02-01T06:18:40;10.43;;;2.50;;
51558;SDS011;61650;48.882;2.092;2023-02-01T06:21:06;8.63;;;2.53;;
51558;SDS011;61650;48.882;2.092;2023-02-01T06:23:32;7.03;;;2.38;;
51558;SDS011;61650;48.882;2.092;2023-02-01T06:26:03;8.43;;;3.20;;
51558;SDS011;61650;48.882;2.092;2023-02-01T06:28:30;7.18;;;2.40;;
51558;SDS011;61650;48.882;2.092;2023-02-01T06:30:57;7.15;;;2.13;;
51558;SDS011;61650;48.882;2.092;2023-02-01T06:33:23;7.00;;;2.23;;
51558;SDS011;61650;48.882;2.092;2023-02-01T06:35:55;12.30;;;2.38;;
51558;SDS011;61650;48.882;2.092;2023-02-01T06:38:22;7.97;;;2.63;;
51558;SDS011;61650;48.882;2.092;2023-02-01T06:40:51;10.23;;;2.60;;
51558;SDS011;61650;48.882;2.092;2023-02-01T06:43:18;5.55;;;2.45;;
51558;SDS011;61650;48.882;2.092;2023-02-01T06:45:43;10.73;;;3.00;;
51558;SDS011;61650;48.882;2.092;2023-02-01T06:48:09;5.00;;;1.90;;
51558;SDS011;61650;48.882;2.092;2023-02-01T06:50:34;11.10;;;2.53;;
51558;SDS011;61650;48.882;2.092;2023-02-01T06:53:00;6.73;;;2.10;;
51558;SDS011;61650;48.882;2.092;2023-02-01T06:55:26;8.60;;;2.83;;
51558;SDS011;61650;48.882;2.092;2023-02-01T06:57:55;6.63;;;2.57;;
51558;SDS011;61650;48.882;2.092;2023-02-01T07:00:21;9.30;;;2.22;;
51558;SDS011;61650;48.882;2.092;2023-02-01T07:02:47;9.68;;;2.58;;
51558;SDS011;61650;48.882;2.092;2023-02-01T07:05:13;10.37;;;3.20;;
51558;SDS011;61650;48.882;2.092;2023-02-01T07:07:39;6.60;;;2.43;;
51558;SDS011;61650;48.882;2.092;2023-02-01T07:10:05;5.10;;;2.80;;
51558;SDS011;61650;48.882;2.092;2023-02-01T07:12:30;6.40;;;2.40;;
51558;SDS011;61650;48.882;2.092;2023-02-01T07:14:56;11.13;;;2.77;;
51558;SDS011;61650;48.882;2.092;2023-02-01T07:17:22;8.33;;;2.33;;
51558;SDS011;61650;48.882;2.092;2023-02-01T07:19:47;5.97;;;2.37;;
51558;SDS011;61650;48.882;2.092;2023-02-01T07:22:15;9.77;;;2.80;;
51558;SDS011;61650;48.882;2.092;2023-02-01T07:24:41;11.45;;;3.03;;
51558;SDS011;61650;48.882;2.092;2023-02-01T07:27:07;10.20;;;2.77;;
51558;SDS011;61650;48.882;2.092;2023-02-01T07:29:33;13.60;;;3.20;;
51558;SDS011;61650;48.882;2.092;2023-02-01T07:31:58;7.97;;;2.70;;
51558;SDS011;61650;48.882;2.092;2023-02-01T07:34:25;6.45;;;2.85;;
51558;SDS011;61650;48.882;2.092;2023-02-01T07:36:51;5.13;;;2.90;;
51558;SDS011;61650;48.882;2.092;2023-02-01T07:39:16;7.67;;;2.80;;
51558;SDS011;61650;48.882;2.092;2023-02-01T07:41:42;14.33;;;3.27;;
51558;SDS011;61650;48.882;2.092;2023-02-01T07:44:08;9.60;;;3.50;;
51558;SDS011;61650;48.882;2.092;2023-02-01T07:46:33;7.27;;;2.50;;
51558;SDS011;61650;48.882;2.092;2023-02-01T07:48:59;9.70;;;3.70;;
51558;SDS011;61650;48.882;2.092;2023-02-01T07:51:25;8.17;;;2.60;;
51558;SDS011;61650;48.882;2.092;2023-02-01T07:53:50;14.00;;;3.20;;
51558;SDS011;61650;48.882;2.092;2023-02-01T07:56:17;5.80;;;2.77;;
51558;SDS011;61650;48.882;2.092;2023-02-01T07:58:47;8.25;;;2.95;;
51558;SDS011;61650;48.882;2.092;2023-02-01T08:01:18;10.75;;;2.70;;
51558;SDS011;61650;48.882;2.092;2023-02-01T08:03:46;8.48;;;3.20;;
51558;SDS011;61650;48.882;2.092;2023-02-01T08:06:19;10.75;;;3.17;;
51558;SDS011;61650;48.882;2.092;2023-02-01T08:08:46;6.47;;;3.03;;
51558;SDS011;61650;48.882;2.092;2023-02-01T08:11:13;13.02;;;3.97;;
51558;SDS011;61650;48.882;2.092;2023-02-01T08:13:39;10.90;;;3.35;;
51558;SDS011;61650;48.882;2.092;2023-02-01T08:16:06;8.83;;;3.00;;
51558;SDS011;61650;48.882;2.092;2023-02-01T08:18:34;14.55;;;2.72;;
51558;SDS011;61650;48.882;2.092;2023-02-01T08:21:04;6.47;;;2.85;;
51558;SDS011;61650;48.882;2.092;2023-02-01T08:23:37;7.00;;;2.53;;
51558;SDS011;61650;48.882;2.092;2023-02-01T08:26:10;10.20;;;3.10;;
51558;SDS011;61650;48.882;2.092;2023-02-01T08:28:42;5.60;;;2.75;;
51558;SDS011;61650;48.882;2.092;2023-02-01T08:31:14;7.18;;;3.00;;
51558;SDS011;61650;48.882;2.092;2023-02-01T08:33:42;14.88;;;3.55;;
51558;SDS011;61650;48.882;2.092;2023-02-01T08:36:10;7.68;;;2.83;;
51558;SDS011;61650;48.882;2.092;2023-02-01T08:38:36;9.68;;;3.15;;
51558;SDS011;61650;48.882;2.092;2023-02-01T08:41:22;15.88;;;3.35;;
51558;SDS011;61650;48.882;2.092;2023-02-01T08:43:50;7.88;;;3.00;;
51558;SDS011;61650;48.882;2.092;2023-02-01T08:46:16;13.48;;;4.43;;
51558;SDS011;61650;48.882;2.092;2023-02-01T08:48:42;9.75;;;3.10;;
51558;SDS011;61650;48.882;2.092;2023-02-01T08:51:12;10.98;;;3.58;;
51558;SDS011;61650;48.882;2.092;2023-02-01T08:53:39;12.73;;;3.60;;
51558;SDS011;61650;48.882;2.092;2023-02-01T08:56:06;9.23;;;3.55;;
51558;SDS011;61650;48.882;2.092;2023-02-01T08:58:32;10.65;;;3.38;;
51558;SDS011;61650;48.882;2.092;2023-02-01T09:01:02;15.20;;;3.70;;
51558;SDS011;61650;48.882;2.092;2023-02-01T09:03:33;12.85;;;3.70;;
51558;SDS011;61650;48.882;2.092;2023-02-01T09:06:02;10.90;;;4.40;;
51558;SDS011;61650;48.882;2.092;2023-02-01T09:08:29;10.60;;;3.42;;
51558;SDS011;61650;48.882;2.092;2023-02-01T09:10:58;10.77;;;3.65;;
51558;SDS011;61650;48.882;2.092;2023-02-01T09:13:25;10.30;;;3.60;;
51558;SDS011;61650;48.882;2.092;2023-02-01T09:15:51;8.63;;;3.40;;
51558;SDS011;61650;48.882;2.092;2023-02-01T09:18:17;11.73;;;4.67;;
51558;SDS011;61650;48.882;2.092;2023-02-01T09:20:42;14.47;;;5.40;;
51558;SDS011;61650;48.882;2.092;2023-02-01T09:23:08;11.60;;;4.30;;
51558;SDS011;61650;48.882;2.092;2023-02-01T09:25:36;15.30;;;4.03;;
51558;SDS011;61650;48.882;2.092;2023-02-01T09:28:02;14.38;;;5.35;;
51558;SDS011;61650;48.882;2.092;2023-02-01T09:30:31;11.85;;;4.40;;
51558;SDS011;61650;48.882;2.092;2023-02-01T09:32:57;15.15;;;6.10;;
51558;SDS011;61650;48.882;2.092;2023-02-01T09:35:23;15.33;;;5.70;;
51558;SDS011;61650;48.882;2.092;2023-02-01T09:37:48;13.37;;;4.17;;
51558;SDS011;61650;48.882;2.092;2023-02-01T09:40:15;10.30;;;4.30;;
51558;SDS011;61650;48.882;2.092;2023-02-01T09:45:15;14.27;;;3.92;;
51558;SDS011;61650;48.882;2.092;2023-02-01T09:47:46;14.00;;;3.78;;
51558;SDS011;61650;48.882;2.092;2023-02-01T09:50:22;13.43;;;3.55;;
51558;SDS011;61650;48.882;2.092;2023-02-01T09:52:59;8.27;;;2.90;;
51558;SDS011;61650;48.882;2.092;2023-02-01T09:55:36;14.68;;;3.45;;
51558;SDS011;61650;48.882;2.092;2023-02-01T10:00:53;11.43;;;3.80;;
51558;SDS011;61650;48.882;2.092;2023-02-01T10:03:24;13.93;;;3.20;;
51558;SDS011;61650;48.882;2.092;2023-02-01T10:11:13;14.52;;;4.57;;
51558;SDS011;61650;48.882;2.092;2023-02-01T10:17:10;7.03;;;2.70;;
51558;SDS011;61650;48.882;2.092;2023-02-01T10:19:51;7.57;;;2.85;;
51558;SDS011;61650;48.882;2.092;2023-02-01T10:25:14;12.50;;;4.28;;
51558;SDS011;61650;48.882;2.092;2023-02-01T10:27:48;11.02;;;3.65;;
51558;SDS011;61650;48.882;2.092;2023-02-01T10:32:45;10.80;;;4.57;;
51558;SDS011;61650;48.882;2.092;2023-02-01T10:35:17;9.02;;;3.35;;
51558;SDS011;61650;48.882;2.092;2023-02-01T10:37:46;10.20;;;3.73;;
51558;SDS011;61650;48.882;2.092;2023-02-01T10:40:30;7.70;;;2.97;;
51558;SDS011;61650;48.882;2.092;2023-02-01T10:42:57;14.50;;;3.30;;
51558;SDS011;61650;48.882;2.092;2023-02-01T10:45:26;8.03;;;3.40;;
51558;SDS011;61650;48.882;2.092;2023-02-01T10:47:54;10.23;;;3.50;;
51558;SDS011;61650;48.882;2.092;2023-02-01T10:53:05;10.40;;;3.27;;
51558;SDS011;61650;48.882;2.092;2023-02-01T10:55:38;11.83;;;4.37;;
51558;SDS011;61650;48.882;2.092;2023-02-01T10:58:30;11.70;;;3.07;;
51558;SDS011;61650;48.882;2.092;2023-02-01T11:01:06;15.00;;;4.27;;
51558;SDS011;61650;48.882;2.092;2023-02-01T11:03:40;12.33;;;3.10;;
51558;SDS011;61650;48.882;2.092;2023-02-01T11:06:18;9.80;;;3.87;;
51558;SDS011;61650;48.882;2.092;2023-02-01T11:11:52;10.70;;;3.60;;
51558;SDS011;61650;48.882;2.092;2023-02-01T11:14:27;7.60;;;2.97;;
51558;SDS011;61650;48.882;2.092;2023-02-01T11:19:44;14.13;;;3.17;;
51558;SDS011;61650;48.882;2.092;2023-02-01T11:22:11;10.20;;;2.93;;
51558;SDS011;61650;48.882;2.092;2023-02-01T11:24:38;10.47;;;2.87;;
51558;SDS011;61650;48.882;2.092;2023-02-01T11:27:16;7.50;;;2.83;;
51558;SDS011;61650;48.882;2.092;2023-02-01T11:29:45;12.27;;;2.70;;
51558;SDS011;61650;48.882;2.092;2023-02-01T11:32:15;8.10;;;2.70;;
51558;SDS011;61650;48.882;2.092;2023-02-01T11:34:45;5.67;;;2.13;;
51558;SDS011;61650;48.882;2.092;2023-02-01T11:37:17;8.83;;;2.90;;
51558;SDS011;61650;48.882;2.092;2023-02-01T11:39:53;11.80;;;3.07;;
51558;SDS011;61650;48.882;2.092;2023-02-01T11:42:24;9.03;;;2.60;;
51558;SDS011;61650;48.882;2.092;2023-02-01T11:44:50;12.43;;;2.90;;
51558;SDS011;61650;48.882;2.092;2023-02-01T11:47:39;12.30;;;3.20;;
51558;SDS011;61650;48.882;2.092;2023-02-01T11:50:11;9.70;;;2.77;;
51558;SDS011;61650;48.882;2.092;2023-02-01T11:58:06;7.40;;;2.47;;
51558;SDS011;61650;48.882;2.092;2023-02-01T12:00:52;8.97;;;3.20;;
51558;SDS011;61650;48.882;2.092;2023-02-01T12:16:15;7.60;;;2.90;;
51558;SDS011;61650;48.882;2.092;2023-02-01T12:26:58;10.80;;;2.80;;
51558;SDS011;61650;48.882;2.092;2023-02-01T12:45:55;8.83;;;3.30;;
51558;SDS011;61650;48.882;2.092;2023-02-01T12:48:46;5.30;;;1.80;;
51558;SDS011;61650;48.882;2.092;2023-02-01T12:51:34;7.37;;;2.27;;
51558;SDS011;61650;48.882;2.092;2023-02-01T12:57:05;11.87;;;3.00;;
51558;SDS011;61650;48.882;2.092;2023-02-01T12:59:38;8.30;;;2.60;;
51558;SDS011;61650;48.882;2.092;2023-02-01T13:07:28;6.30;;;2.23;;
51558;SDS011;61650;48.882;2.092;2023-02-01T13:10:01;9.30;;;2.63;;
51558;SDS011;61650;48.882;2.092;2023-02-01T13:12:37;7.17;;;2.40;;
51558;SDS011;61650;48.882;2.092;2023-02-01T13:15:23;5.00;;;2.63;;
51558;SDS011;61650;48.882;2.092;2023-02-01T13:17:52;8.23;;;2.80;;
51558;SDS011;61650;48.882;2.092;2023-02-01T13:20:30;12.00;;;2.27;;
51558;SDS011;61650;48.882;2.092;2023-02-01T13:23:00;6.57;;;2.40;;
51558;SDS011;61650;48.882;2.092;2023-02-01T13:28:15;8.07;;;2.40;;
51558;SDS011;61650;48.882;2.092;2023-02-01T13:42:03;7.23;;;2.37;;
51558;SDS011;61650;48.882;2.092;2023-02-01T13:47:48;6.00;;;2.40;;
51558;SDS011;61650;48.882;2.092;2023-02-01T13:52:59;8.23;;;2.57;;
51558;SDS011;61650;48.882;2.092;2023-02-01T13:55:41;10.60;;;2.77;;
51558;SDS011;61650;48.882;2.092;2023-02-01T14:00:45;12.63;;;3.37;;
51558;SDS011;61650;48.882;2.092;2023-02-01T14:03:12;6.00;;;2.20;;
51558;SDS011;61650;48.882;2.092;2023-02-01T14:13:12;8.43;;;2.03;;
51558;SDS011;61650;48.882;2.092;2023-02-01T14:23:58;4.93;;;2.80;;
51558;SDS011;61650;48.882;2.092;2023-02-01T14:29:10;6.83;;;2.30;;
51558;SDS011;61650;48.882;2.092;2023-02-01T14:34:39;7.47;;;2.20;;
51558;SDS011;61650;48.882;2.092;2023-02-01T14:40:04;8.37;;;2.50;;
51558;SDS011;61650;48.882;2.092;2023-02-01T14:58:05;10.23;;;1.97;;
51558;SDS011;61650;48.882;2.092;2023-02-01T15:00:35;8.57;;;2.43;;
51558;SDS011;61650;48.882;2.092;2023-02-01T15:06:01;4.80;;;1.80;;
51558;SDS011;61650;48.882;2.092;2023-02-01T15:08:32;8.83;;;2.10;;
51558;SDS011;61650;48.882;2.092;2023-02-01T15:11:02;5.10;;;2.27;;
51558;SDS011;61650;48.882;2.092;2023-02-01T15:13:31;7.80;;;1.77;;
51558;SDS011;61650;48.882;2.092;2023-02-01T15:16:04;9.87;;;2.30;;
51558;SDS011;61650;48.882;2.092;2023-02-01T15:18:40;4.10;;;1.17;;
51558;SDS011;61650;48.882;2.092;2023-02-01T15:21:06;5.57;;;1.57;;
51558;SDS011;61650;48.882;2.092;2023-02-01T15:23:44;5.77;;;2.10;;
51558;SDS011;61650;48.882;2.092;2023-02-01T15:26:23;8.67;;;2.10;;
51558;SDS011;61650;48.882;2.092;2023-02-01T15:31:32;8.63;;;1.80;;
51558;SDS011;61650;48.882;2.092;2023-02-01T15:34:05;6.53;;;2.47;;
51558;SDS011;61650;48.882;2.092;2023-02-01T15:36:31;4.40;;;1.80;;
51558;SDS011;61650;48.882;2.092;2023-02-01T15:39:11;7.03;;;1.60;;
51558;SDS011;61650;48.882;2.092;2023-02-01T15:41:37;7.00;;;1.90;;
51558;SDS011;61650;48.882;2.092;2023-02-01T15:44:04;4.97;;;1.80;;
51558;SDS011;61650;48.882;2.092;2023-02-01T15:46:41;5.87;;;1.73;;
51558;SDS011;61650;48.882;2.092;2023-02-01T15:49:18;9.23;;;2.00;;
51558;SDS011;61650;48.882;2.092;2023-02-01T15:51:50;8.70;;;2.63;;
51558;SDS011;61650;48.882;2.092;2023-02-01T15:54:17;6.53;;;2.43;;
51558;SDS011;61650;48.882;2.092;2023-02-01T15:56:51;8.10;;;2.50;;
51558;SDS011;61650;48.882;2.092;2023-02-01T15:59:19;6.90;;;2.07;;
51558;SDS011;61650;48.882;2.092;2023-02-01T16:01:47;8.97;;;2.47;;
51558;SDS011;61650;48.882;2.092;2023-02-01T16:04:21;9.93;;;2.23;;
51558;SDS011;61650;48.882;2.092;2023-02-01T16:06:53;8.57;;;2.50;;
51558;SDS011;61650;48.882;2.092;2023-02-01T16:09:21;5.17;;;1.87;;
51558;SDS011;61650;48.882;2.092;2023-02-01T16:11:56;4.70;;;2.00;;
51558;SDS011;61650;48.882;2.092;2023-02-01T16:14:25;7.17;;;1.60;;
51558;SDS011;61650;48.882;2.092;2023-02-01T16:16:52;6.53;;;2.70;;
51558;SDS011;61650;48.882;2.092;2023-02-01T16:19:19;7.20;;;1.90;;
51558;SDS011;61650;48.882;2.092;2023-02-01T16:21:45;8.20;;;2.50;;
51558;SDS011;61650;48.882;2.092;2023-02-01T16:24:11;7.33;;;2.10;;
51558;SDS011;61650;48.882;2.092;2023-02-01T16:26:37;4.80;;;2.00;;
51558;SDS011;61650;48.882;2.092;2023-02-01T16:29:03;11.67;;;2.57;;
51558;SDS011;61650;48.882;2.092;2023-02-01T16:31:31;6.27;;;2.20;;
51558;SDS011;61650;48.882;2.092;2023-02-01T16:34:02;8.30;;;2.33;;
51558;SDS011;61650;48.882;2.092;2023-02-01T16:36:28;7.30;;;2.60;;
51558;SDS011;61650;48.882;2.092;2023-02-01T16:38:57;6.57;;;2.23;;
51558;SDS011;61650;48.882;2.092;2023-02-01T16:41:24;8.40;;;2.10;;
51558;SDS011;61650;48.882;2.092;2023-02-01T16:43:51;10.20;;;2.10;;
51558;SDS011;61650;48.882;2.092;2023-02-01T16:46:22;5.70;;;1.83;;
51558;SDS011;61650;48.882;2.092;2023-02-01T16:48:55;5.50;;;2.60;;
51558;SDS011;61650;48.882;2.092;2023-02-01T16:51:23;12.97;;;2.83;;
51558;SDS011;61650;48.882;2.092;2023-02-01T16:53:51;5.83;;;2.53;;
51558;SDS011;61650;48.882;2.092;2023-02-01T16:56:18;6.10;;;2.83;;
51558;SDS011;61650;48.882;2.092;2023-02-01T16:58:45;8.23;;;4.00;;
51558;SDS011;61650;48.882;2.092;2023-02-01T17:01:12;4.80;;;2.17;;
51558;SDS011;61650;48.882;2.092;2023-02-01T17:03:40;4.47;;;2.30;;
51558;SDS011;61650;48.882;2.092;2023-02-01T17:06:10;7.53;;;2.90;;
51558;SDS011;61650;48.882;2.092;2023-02-01T17:08:40;4.43;;;2.20;;
51558;SDS011;61650;48.882;2.092;2023-02-01T17:11:10;6.10;;;2.30;;
51558;SDS011;61650;48.882;2.092;2023-02-01T17:13:42;5.10;;;2.00;;
51558;SDS011;61650;48.882;2.092;2023-02-01T17:18:41;7.27;;;2.60;;
51558;SDS011;61650;48.882;2.092;2023-02-01T17:21:08;7.43;;;2.43;;
51558;SDS011;61650;48.882;2.092;2023-02-01T17:23:35;7.37;;;2.20;;
51558;SDS011;61650;48.882;2.092;2023-02-01T17:26:00;4.03;;;2.17;;
51558;SDS011;61650;48.882;2.092;2023-02-01T17:28:27;9.07;;;2.60;;
51558;SDS011;61650;48.882;2.092;2023-02-01T17:30:53;7.70;;;2.60;;
51558;SDS011;61650;48.882;2.092;2023-02-01T17:33:21;10.27;;;2.70;;
51558;SDS011;61650;48.882;2.092;2023-02-01T17:35:50;5.60;;;2.17;;
51558;SDS011;61650;48.882;2.092;2023-02-01T17:38:17;7.33;;;2.23;;
51558;SDS011;61650;48.882;2.092;2023-02-01T17:40:42;6.03;;;2.50;;
51558;SDS011;61650;48.882;2.092;2023-02-01T17:43:15;4.17;;;2.10;;
51558;SDS011;61650;48.882;2.092;2023-02-01T17:45:45;8.07;;;3.50;;
51558;SDS011;61650;48.882;2.092;2023-02-01T17:48:22;9.37;;;3.03;;
51558;SDS011;61650;48.882;2.092;2023-02-01T17:50:48;11.37;;;3.73;;
51558;SDS011;61650;48.882;2.092;2023-02-01T17:53:18;13.70;;;5.33;;
51558;SDS011;61650;48.882;2.092;2023-02-01T17:55:48;17.73;;;5.53;;
51558;SDS011;61650;48.882;2.092;2023-02-01T17:58:15;7.27;;;2.50;;
51558;SDS011;61650;48.882;2.092;2023-02-01T18:00:42;31.33;;;10.20;;